sensor_id;sensor_type;location;lat;lon;timestamp;temperature;humidity
12557;DHT22;6344;49.932;8.308;2023-02-24T00:01:41;8.40;99.90
12557;DHT22;6344;49.932;8.308;2023-02-24T00:04:10;8.40;99.90
12557;DHT22;6344;49.932;8.308;2023-02-24T00:06:39;8.40;99.90
12557;DHT22;6344;49.932;8.308;2023-02-24T00:09:10;8.30;99.90
12557;DHT22;6344;49.932;8.308;2023-02-24T00:11:42;8.30;99.90
12557;DHT22;6344;49.932;8.308;2023-02-24T00:14:11;8.30;99.90
12557;DHT22;6344;49.932;8.308;2023-02-24T00:16:41;8.30;99.90
12557;DHT22;6344;49.932;8.308;2023-02-24T00:19:08;8.20;99.90
12557;DHT22;6344;49.932;8.308;2023-02-24T00:21:36;8.20;99.90
12557;DHT22;6344;49.932;8.308;2023-02-24T00:24:03;8.10;99.90
12557;DHT22;6344;49.932;8.308;2023-02-24T00:26:31;8.00;99.90
12557;DHT22;6344;49.932;8.308;2023-02-24T00:28:58;7.90;99.90
12557;DHT22;6344;49.932;8.308;2023-02-24T00:31:28;7.80;99.90
12557;DHT22;6344;49.932;8.308;2023-02-24T00:33:56;7.80;99.90
12557;DHT22;6344;49.932;8.308;2023-02-24T00:36:25;7.90;99.90
12557;DHT22;6344;49.932;8.308;2023-02-24T00:38:53;7.90;99.90
12557;DHT22;6344;49.932;8.308;2023-02-24T00:41:22;7.80;99.90
12557;DHT22;6344;49.932;8.308;2023-02-24T00:43:50;7.80;99.90
12557;DHT22;6344;49.932;8.308;2023-02-24T00:46:18;7.70;99.90
12557;DHT22;6344;49.932;8.308;2023-02-24T00:48:47;7.60;99.90
12557;DHT22;6344;49.932;8.308;2023-02-24T00:51:16;7.60;99.90
12557;DHT22;6344;49.932;8.308;2023-02-24T00:53:48;7.50;99.90
12557;DHT22;6344;49.932;8.308;2023-02-24T00:56:15;7.40;99.90
12557;DHT22;6344;49.932;8.308;2023-02-24T00:58:42;7.40;99.90
12557;DHT22;6344;49.932;8.308;2023-02-24T01:01:15;7.40;99.90
12557;DHT22;6344;49.932;8.308;2023-02-24T01:03:42;7.40;99.90
12557;DHT22;6344;49.932;8.308;2023-02-24T01:06:10;7.40;99.90
12557;DHT22;6344;49.932;8.308;2023-02-24T01:08:37;7.50;99.90
12557;DHT22;6344;49.932;8.308;2023-02-24T01:11:05;7.50;99.90
12557;DHT22;6344;49.932;8.308;2023-02-24T01:13:46;7.50;99.90
12557;DHT22;6344;49.932;8.308;2023-02-24T01:16:14;7.50;99.90
12557;DHT22;6344;49.932;8.308;2023-02-24T01:18:43;7.40;99.90
12557;DHT22;6344;49.932;8.308;2023-02-24T01:21:10;7.30;99.90
12557;DHT22;6344;49.932;8.308;2023-02-24T01:23:37;7.20;99.90
12557;DHT22;6344;49.932;8.308;2023-02-24T01:26:04;7.20;99.90
12557;DHT22;6344;49.932;8.308;2023-02-24T01:28:31;7.20;99.90
12557;DHT22;6344;49.932;8.308;2023-02-24T01:31:00;7.20;99.90
12557;DHT22;6344;49.932;8.308;2023-02-24T01:33:28;7.20;99.90
12557;DHT22;6344;49.932;8.308;2023-02-24T01:35:55;7.20;99.90
12557;DHT22;6344;49.932;8.308;2023-02-24T01:38:22;7.30;99.90
12557;DHT22;6344;49.932;8.308;2023-02-24T01:40:55;7.30;99.90
12557;DHT22;6344;49.932;8.308;2023-02-24T01:43:22;7.30;99.90
12557;DHT22;6344;49.932;8.308;2023-02-24T01:45:49;7.30;99.90
12557;DHT22;6344;49.932;8.308;2023-02-24T01:48:16;7.30;99.90
12557;DHT22;6344;49.932;8.308;2023-02-24T01:50:44;7.40;99.90
12557;DHT22;6344;49.932;8.308;2023-02-24T01:53:12;7.40;99.90
12557;DHT22;6344;49.932;8.308;2023-02-24T01:55:41;7.40;99.90
12557;DHT22;6344;49.932;8.308;2023-02-24T01:58:15;7.30;99.90
12557;DHT22;6344;49.932;8.308;2023-02-24T02:00:44;7.30;99.90
12557;DHT22;6344;49.932;8.308;2023-02-24T02:03:17;7.30;99.90
12557;DHT22;6344;49.932;8.308;2023-02-24T02:05:46;7.30;99.90
12557;DHT22;6344;49.932;8.308;2023-02-24T02:08:14;7.30;99.90
12557;DHT22;6344;49.932;8.308;2023-02-24T02:10:42;7.30;99.90
12557;DHT22;6344;49.932;8.308;2023-02-24T02:13:10;7.30;99.90
12557;DHT22;6344;49.932;8.308;2023-02-24T02:15:46;7.30;99.90
12557;DHT22;6344;49.932;8.308;2023-02-24T02:18:20;7.30;99.90
12557;DHT22;6344;49.932;8.308;2023-02-24T02:21:06;7.20;99.90
12557;DHT22;6344;49.932;8.308;2023-02-24T02:23:55;7.30;99.90
12557;DHT22;6344;49.932;8.308;2023-02-24T02:26:48;7.30;99.90
12557;DHT22;6344;49.932;8.308;2023-02-24T02:29:42;7.20;99.90
12557;DHT22;6344;49.932;8.308;2023-02-24T02:32:29;7.20;99.90
12557;DHT22;6344;49.932;8.308;2023-02-24T02:35:03;7.20;99.90
12557;DHT22;6344;49.932;8.308;2023-02-24T02:37:34;7.30;99.90
12557;DHT22;6344;49.932;8.308;2023-02-24T02:40:06;7.30;99.90
12557;DHT22;6344;49.932;8.308;2023-02-24T02:42:45;7.40;99.90
12557;DHT22;6344;49.932;8.308;2023-02-24T02:45:15;7.40;99.90
12557;DHT22;6344;49.932;8.308;2023-02-24T02:47:48;7.50;99.90
12557;DHT22;6344;49.932;8.308;2023-02-24T02:50:23;7.50;99.90
12557;DHT22;6344;49.932;8.308;2023-02-24T02:52:55;7.50;99.90
12557;DHT22;6344;49.932;8.308;2023-02-24T02:55:27;7.50;99.90
12557;DHT22;6344;49.932;8.308;2023-02-24T02:58:00;7.50;99.90
12557;DHT22;6344;49.932;8.308;2023-02-24T03:00:31;7.50;99.90
12557;DHT22;6344;49.932;8.308;2023-02-24T03:03:05;7.50;99.90
12557;DHT22;6344;49.932;8.308;2023-02-24T03:05:38;7.50;99.90
12557;DHT22;6344;49.932;8.308;2023-02-24T03:08:12;7.50;99.90
12557;DHT22;6344;49.932;8.308;2023-02-24T03:10:43;7.50;99.90
12557;DHT22;6344;49.932;8.308;2023-02-24T03:13:17;7.50;99.90
12557;DHT22;6344;49.932;8.308;2023-02-24T03:15:45;7.40;99.90
12557;DHT22;6344;49.932;8.308;2023-02-24T03:18:15;7.40;99.90
12557;DHT22;6344;49.932;8.308;2023-02-24T03:20:47;7.40;99.90
12557;DHT22;6344;49.932;8.308;2023-02-24T03:23:17;7.30;99.90
12557;DHT22;6344;49.932;8.308;2023-02-24T03:25:52;7.20;99.90
12557;DHT22;6344;49.932;8.308;2023-02-24T03:28:29;7.20;99.90
12557;DHT22;6344;49.932;8.308;2023-02-24T03:31:01;7.20;99.90
12557;DHT22;6344;49.932;8.308;2023-02-24T03:33:34;7.20;99.90
12557;DHT22;6344;49.932;8.308;2023-02-24T03:36:03;7.10;99.90
12557;DHT22;6344;49.932;8.308;2023-02-24T03:38:32;7.10;99.90
12557;DHT22;6344;49.932;8.308;2023-02-24T03:41:03;7.10;99.90
12557;DHT22;6344;49.932;8.308;2023-02-24T03:43:38;7.10;99.90
12557;DHT22;6344;49.932;8.308;2023-02-24T03:46:05;7.10;99.90
12557;DHT22;6344;49.932;8.308;2023-02-24T03:48:38;7.20;99.90
12557;DHT22;6344;49.932;8.308;2023-02-24T03:51:10;7.10;99.90
12557;DHT22;6344;49.932;8.308;2023-02-24T03:53:47;7.00;99.90
12557;DHT22;6344;49.932;8.308;2023-02-24T03:56:27;7.00;99.90
12557;DHT22;6344;49.932;8.308;2023-02-24T03:59:08;7.00;99.90
12557;DHT22;6344;49.932;8.308;2023-02-24T04:01:44;7.00;99.90
12557;DHT22;6344;49.932;8.308;2023-02-24T04:04:18;7.00;99.90
12557;DHT22;6344;49.932;8.308;2023-02-24T04:06:55;7.00;99.90
12557;DHT22;6344;49.932;8.308;2023-02-24T04:09:28;7.00;99.90
12557;DHT22;6344;49.932;8.308;2023-02-24T04:12:07;7.00;99.90
12557;DHT22;6344;49.932;8.308;2023-02-24T04:14:39;7.00;99.90
12557;DHT22;6344;49.932;8.308;2023-02-24T04:17:12;7.10;99.90
12557;DHT22;6344;49.932;8.308;2023-02-24T04:19:45;7.10;99.90
12557;DHT22;6344;49.932;8.308;2023-02-24T04:22:17;7.00;99.90
12557;DHT22;6344;49.932;8.308;2023-02-24T04:24:50;7.00;99.90
12557;DHT22;6344;49.932;8.308;2023-02-24T04:27:17;7.10;99.90
12557;DHT22;6344;49.932;8.308;2023-02-24T04:29:48;7.10;99.90
12557;DHT22;6344;49.932;8.308;2023-02-24T04:32:18;7.00;99.90
12557;DHT22;6344;49.932;8.308;2023-02-24T04:34:46;6.90;99.90
12557;DHT22;6344;49.932;8.308;2023-02-24T04:37:14;6.90;99.90
12557;DHT22;6344;49.932;8.308;2023-02-24T04:39:41;7.00;99.90
12557;DHT22;6344;49.932;8.308;2023-02-24T04:42:09;7.00;99.90
12557;DHT22;6344;49.932;8.308;2023-02-24T04:44:35;6.90;99.90
12557;DHT22;6344;49.932;8.308;2023-02-24T04:47:02;6.90;99.90
12557;DHT22;6344;49.932;8.308;2023-02-24T04:49:29;6.80;99.90
12557;DHT22;6344;49.932;8.308;2023-02-24T04:51:55;6.80;99.90
12557;DHT22;6344;49.932;8.308;2023-02-24T04:54:23;6.80;99.90
12557;DHT22;6344;49.932;8.308;2023-02-24T04:56:51;6.80;99.90
12557;DHT22;6344;49.932;8.308;2023-02-24T04:59:19;6.90;99.90
12557;DHT22;6344;49.932;8.308;2023-02-24T05:01:46;6.90;99.90
12557;DHT22;6344;49.932;8.308;2023-02-24T05:04:16;6.80;99.90
12557;DHT22;6344;49.932;8.308;2023-02-24T05:06:43;6.80;99.90
12557;DHT22;6344;49.932;8.308;2023-02-24T05:09:10;6.80;99.90
12557;DHT22;6344;49.932;8.308;2023-02-24T05:11:41;6.70;99.90
12557;DHT22;6344;49.932;8.308;2023-02-24T05:14:09;6.70;99.90
12557;DHT22;6344;49.932;8.308;2023-02-24T05:16:39;6.70;99.90
12557;DHT22;6344;49.932;8.308;2023-02-24T05:19:06;6.70;99.90
12557;DHT22;6344;49.932;8.308;2023-02-24T05:21:51;6.70;99.90
12557;DHT22;6344;49.932;8.308;2023-02-24T05:24:17;6.70;99.90
12557;DHT22;6344;49.932;8.308;2023-02-24T05:26:45;6.80;99.90
12557;DHT22;6344;49.932;8.308;2023-02-24T05:29:12;6.80;99.90
12557;DHT22;6344;49.932;8.308;2023-02-24T05:31:39;6.80;99.90
12557;DHT22;6344;49.932;8.308;2023-02-24T05:34:06;6.80;99.90
12557;DHT22;6344;49.932;8.308;2023-02-24T05:36:36;6.80;99.90
12557;DHT22;6344;49.932;8.308;2023-02-24T05:39:05;6.80;99.90
12557;DHT22;6344;49.932;8.308;2023-02-24T05:41:34;6.80;99.90
12557;DHT22;6344;49.932;8.308;2023-02-24T05:44:05;6.80;99.90
12557;DHT22;6344;49.932;8.308;2023-02-24T05:46:36;6.80;99.90
12557;DHT22;6344;49.932;8.308;2023-02-24T05:49:04;6.90;99.90
12557;DHT22;6344;49.932;8.308;2023-02-24T05:51:34;6.90;99.90
12557;DHT22;6344;49.932;8.308;2023-02-24T05:54:01;6.90;99.90
12557;DHT22;6344;49.932;8.308;2023-02-24T05:56:29;6.90;99.90
12557;DHT22;6344;49.932;8.308;2023-02-24T05:58:57;6.90;99.90
12557;DHT22;6344;49.932;8.308;2023-02-24T06:01:29;6.80;99.90
12557;DHT22;6344;49.932;8.308;2023-02-24T06:03:57;6.80;99.90
12557;DHT22;6344;49.932;8.308;2023-02-24T06:06:31;6.90;99.90
12557;DHT22;6344;49.932;8.308;2023-02-24T06:08:59;6.90;99.90
12557;DHT22;6344;49.932;8.308;2023-02-24T06:11:31;6.80;99.90
12557;DHT22;6344;49.932;8.308;2023-02-24T06:13:58;6.80;99.90
12557;DHT22;6344;49.932;8.308;2023-02-24T06:16:27;6.80;99.90
12557;DHT22;6344;49.932;8.308;2023-02-24T06:18:54;6.80;99.90
12557;DHT22;6344;49.932;8.308;2023-02-24T06:21:22;6.80;99.90
12557;DHT22;6344;49.932;8.308;2023-02-24T06:23:49;6.80;99.90
12557;DHT22;6344;49.932;8.308;2023-02-24T06:26:15;6.90;99.90
12557;DHT22;6344;49.932;8.308;2023-02-24T06:28:44;6.90;99.90
12557;DHT22;6344;49.932;8.308;2023-02-24T06:31:12;6.90;99.90
12557;DHT22;6344;49.932;8.308;2023-02-24T06:33:41;6.90;99.90
12557;DHT22;6344;49.932;8.308;2023-02-24T06:36:07;6.80;99.90
12557;DHT22;6344;49.932;8.308;2023-02-24T06:38:35;6.80;99.90
12557;DHT22;6344;49.932;8.308;2023-02-24T06:41:04;6.80;99.90
12557;DHT22;6344;49.932;8.308;2023-02-24T06:43:35;6.90;99.90
12557;DHT22;6344;49.932;8.308;2023-02-24T06:46:03;6.80;99.90
12557;DHT22;6344;49.932;8.308;2023-02-24T06:48:30;6.90;99.90
12557;DHT22;6344;49.932;8.308;2023-02-24T06:51:02;6.90;99.90
12557;DHT22;6344;49.932;8.308;2023-02-24T06:53:29;6.90;99.90
12557;DHT22;6344;49.932;8.308;2023-02-24T06:56:02;6.90;99.90
12557;DHT22;6344;49.932;8.308;2023-02-24T06:58:31;6.90;99.90
12557;DHT22;6344;49.932;8.308;2023-02-24T07:00:58;7.00;99.90
12557;DHT22;6344;49.932;8.308;2023-02-24T07:03:27;7.00;99.90
12557;DHT22;6344;49.932;8.308;2023-02-24T07:06:06;7.00;99.90
12557;DHT22;6344;49.932;8.308;2023-02-24T07:08:50;7.00;99.90
12557;DHT22;6344;49.932;8.308;2023-02-24T07:11:18;7.00;99.90
12557;DHT22;6344;49.932;8.308;2023-02-24T07:13:45;7.00;99.90
12557;DHT22;6344;49.932;8.308;2023-02-24T07:16:13;7.00;99.90
12557;DHT22;6344;49.932;8.308;2023-02-24T07:18:41;7.00;99.90
12557;DHT22;6344;49.932;8.308;2023-02-24T07:21:10;7.10;99.90
12557;DHT22;6344;49.932;8.308;2023-02-24T07:23:37;7.20;99.90
12557;DHT22;6344;49.932;8.308;2023-02-24T07:26:09;7.20;99.90
12557;DHT22;6344;49.932;8.308;2023-02-24T07:28:37;7.20;99.90
12557;DHT22;6344;49.932;8.308;2023-02-24T07:31:05;7.10;99.90
12557;DHT22;6344;49.932;8.308;2023-02-24T07:33:32;7.20;99.90
12557;DHT22;6344;49.932;8.308;2023-02-24T07:36:01;7.40;99.90
12557;DHT22;6344;49.932;8.308;2023-02-24T07:38:34;7.50;99.90
12557;DHT22;6344;49.932;8.308;2023-02-24T07:41:01;7.50;99.90
12557;DHT22;6344;49.932;8.308;2023-02-24T07:43:31;7.40;99.90
12557;DHT22;6344;49.932;8.308;2023-02-24T07:46:04;7.40;99.90
12557;DHT22;6344;49.932;8.308;2023-02-24T07:48:31;7.40;99.90
12557;DHT22;6344;49.932;8.308;2023-02-24T07:50:59;7.50;99.90
12557;DHT22;6344;49.932;8.308;2023-02-24T07:53:25;7.60;99.90
12557;DHT22;6344;49.932;8.308;2023-02-24T07:55:53;7.70;99.90
12557;DHT22;6344;49.932;8.308;2023-02-24T07:58:20;7.80;99.90
12557;DHT22;6344;49.932;8.308;2023-02-24T08:00:47;7.90;99.90
12557;DHT22;6344;49.932;8.308;2023-02-24T08:03:26;7.90;99.90
12557;DHT22;6344;49.932;8.308;2023-02-24T08:05:55;8.00;99.90
12557;DHT22;6344;49.932;8.308;2023-02-24T08:08:37;8.10;99.90
12557;DHT22;6344;49.932;8.308;2023-02-24T08:11:24;8.20;99.90
12557;DHT22;6344;49.932;8.308;2023-02-24T08:13:51;8.10;99.90
12557;DHT22;6344;49.932;8.308;2023-02-24T08:16:18;8.20;99.90
12557;DHT22;6344;49.932;8.308;2023-02-24T08:18:45;8.30;99.90
12557;DHT22;6344;49.932;8.308;2023-02-24T08:21:13;8.40;99.90
12557;DHT22;6344;49.932;8.308;2023-02-24T08:23:40;8.40;99.90
12557;DHT22;6344;49.932;8.308;2023-02-24T08:26:09;8.40;99.90
12557;DHT22;6344;49.932;8.308;2023-02-24T08:28:38;8.50;99.90
12557;DHT22;6344;49.932;8.308;2023-02-24T08:31:05;8.50;99.90
12557;DHT22;6344;49.932;8.308;2023-02-24T08:33:31;8.60;99.90
12557;DHT22;6344;49.932;8.308;2023-02-24T08:36:01;8.80;63.60
12557;DHT22;6344;49.932;8.308;2023-02-24T08:38:31;8.80;48.10
12557;DHT22;6344;49.932;8.308;2023-02-24T08:41:13;8.80;54.30
12557;DHT22;6344;49.932;8.308;2023-02-24T08:43:46;8.90;70.00
12557;DHT22;6344;49.932;8.308;2023-02-24T08:46:16;8.90;57.60
12557;DHT22;6344;49.932;8.308;2023-02-24T08:48:45;8.90;56.40
12557;DHT22;6344;49.932;8.308;2023-02-24T08:51:15;8.90;62.60
12557;DHT22;6344;49.932;8.308;2023-02-24T08:53:47;9.00;72.00
12557;DHT22;6344;49.932;8.308;2023-02-24T08:56:18;9.00;61.40
12557;DHT22;6344;49.932;8.308;2023-02-24T08:58:51;9.10;57.40
12557;DHT22;6344;49.932;8.308;2023-02-24T09:01:23;9.10;34.00
12557;DHT22;6344;49.932;8.308;2023-02-24T09:03:52;9.20;54.90
12557;DHT22;6344;49.932;8.308;2023-02-24T09:06:22;9.20;39.60
12557;DHT22;6344;49.932;8.308;2023-02-24T09:08:52;9.10;62.20
12557;DHT22;6344;49.932;8.308;2023-02-24T09:11:40;9.30;29.20
12557;DHT22;6344;49.932;8.308;2023-02-24T09:14:12;9.30;28.80
12557;DHT22;6344;49.932;8.308;2023-02-24T09:16:43;9.30;22.20
12557;DHT22;6344;49.932;8.308;2023-02-24T09:19:28;9.30;34.70
12557;DHT22;6344;49.932;8.308;2023-02-24T09:22:32;9.50;17.80
12557;DHT22;6344;49.932;8.308;2023-02-24T09:25:07;9.60;18.80
12557;DHT22;6344;49.932;8.308;2023-02-24T09:27:52;9.50;10.80
12557;DHT22;6344;49.932;8.308;2023-02-24T09:30:24;9.50;8.10
12557;DHT22;6344;49.932;8.308;2023-02-24T09:33:05;9.50;3.40
12557;DHT22;6344;49.932;8.308;2023-02-24T09:35:33;9.60;1.00
12557;DHT22;6344;49.932;8.308;2023-02-24T09:38:02;9.60;1.00
12557;DHT22;6344;49.932;8.308;2023-02-24T09:40:31;9.60;1.00
12557;DHT22;6344;49.932;8.308;2023-02-24T09:43:05;9.80;99.90
12557;DHT22;6344;49.932;8.308;2023-02-24T09:45:37;9.90;99.90
12557;DHT22;6344;49.932;8.308;2023-02-24T09:48:13;10.10;1.00
12557;DHT22;6344;49.932;8.308;2023-02-24T09:50:41;10.20;1.00
12557;DHT22;6344;49.932;8.308;2023-02-24T09:53:26;10.20;1.00
12557;DHT22;6344;49.932;8.308;2023-02-24T09:56:01;10.40;1.00
12557;DHT22;6344;49.932;8.308;2023-02-24T09:58:36;10.50;1.00
12557;DHT22;6344;49.932;8.308;2023-02-24T10:04:02;10.60;1.00
12557;DHT22;6344;49.932;8.308;2023-02-24T10:06:38;10.70;1.00
12557;DHT22;6344;49.932;8.308;2023-02-24T10:09:11;10.60;1.00
12557;DHT22;6344;49.932;8.308;2023-02-24T10:11:41;10.30;1.00
12557;DHT22;6344;49.932;8.308;2023-02-24T10:14:20;10.40;1.00
12557;DHT22;6344;49.932;8.308;2023-02-24T10:16:50;10.80;1.00
12557;DHT22;6344;49.932;8.308;2023-02-24T10:19:41;10.90;1.00
12557;DHT22;6344;49.932;8.308;2023-02-24T10:22:15;10.60;1.00
12557;DHT22;6344;49.932;8.308;2023-02-24T10:24:56;10.70;1.00
12557;DHT22;6344;49.932;8.308;2023-02-24T10:27:40;10.70;1.00
12557;DHT22;6344;49.932;8.308;2023-02-24T10:30:13;10.90;1.00
12557;DHT22;6344;49.932;8.308;2023-02-24T10:32:50;11.00;1.00
12557;DHT22;6344;49.932;8.308;2023-02-24T10:35:20;10.90;99.90
12557;DHT22;6344;49.932;8.308;2023-02-24T10:37:51;11.00;99.90
12557;DHT22;6344;49.932;8.308;2023-02-24T10:40:18;10.90;99.90
12557;DHT22;6344;49.932;8.308;2023-02-24T10:43:02;10.90;1.00
12557;DHT22;6344;49.932;8.308;2023-02-24T10:45:38;11.10;1.00
12557;DHT22;6344;49.932;8.308;2023-02-24T10:48:16;11.00;1.00
12557;DHT22;6344;49.932;8.308;2023-02-24T10:50:50;11.60;99.90
12557;DHT22;6344;49.932;8.308;2023-02-24T10:53:21;11.70;99.90
12557;DHT22;6344;49.932;8.308;2023-02-24T10:56:01;11.60;99.90
12557;DHT22;6344;49.932;8.308;2023-02-24T10:58:59;11.40;99.90
12557;DHT22;6344;49.932;8.308;2023-02-24T11:01:49;11.10;99.90
12557;DHT22;6344;49.932;8.308;2023-02-24T11:04:31;11.40;99.90
12557;DHT22;6344;49.932;8.308;2023-02-24T11:07:19;11.60;99.90
12557;DHT22;6344;49.932;8.308;2023-02-24T11:10:02;11.40;99.90
12557;DHT22;6344;49.932;8.308;2023-02-24T11:12:37;11.50;99.90
12557;DHT22;6344;49.932;8.308;2023-02-24T11:15:29;11.80;99.90
12557;DHT22;6344;49.932;8.308;2023-02-24T11:18:17;11.80;99.90
12557;DHT22;6344;49.932;8.308;2023-02-24T11:20:49;12.20;99.90
12557;DHT22;6344;49.932;8.308;2023-02-24T11:23:19;12.80;99.90
12557;DHT22;6344;49.932;8.308;2023-02-24T11:25:48;13.20;99.90
12557;DHT22;6344;49.932;8.308;2023-02-24T11:28:30;13.60;1.00
12557;DHT22;6344;49.932;8.308;2023-02-24T11:31:06;13.40;1.00
12557;DHT22;6344;49.932;8.308;2023-02-24T11:33:43;12.80;1.00
12557;DHT22;6344;49.932;8.308;2023-02-24T11:36:18;13.00;1.00
12557;DHT22;6344;49.932;8.308;2023-02-24T11:38:54;13.20;1.00
12557;DHT22;6344;49.932;8.308;2023-02-24T11:41:26;13.60;1.00
12557;DHT22;6344;49.932;8.308;2023-02-24T11:43:58;13.50;1.00
12557;DHT22;6344;49.932;8.308;2023-02-24T11:46:35;13.50;1.00
12557;DHT22;6344;49.932;8.308;2023-02-24T11:49:10;13.40;1.00
12557;DHT22;6344;49.932;8.308;2023-02-24T11:51:44;13.30;1.00
12557;DHT22;6344;49.932;8.308;2023-02-24T11:54:14;14.00;1.00
12557;DHT22;6344;49.932;8.308;2023-02-24T11:56:44;14.30;1.00
12557;DHT22;6344;49.932;8.308;2023-02-24T11:59:15;14.70;1.00
12557;DHT22;6344;49.932;8.308;2023-02-24T12:01:48;14.60;1.00
12557;DHT22;6344;49.932;8.308;2023-02-24T12:04:20;14.30;1.00
12557;DHT22;6344;49.932;8.308;2023-02-24T12:06:56;14.10;1.00
12557;DHT22;6344;49.932;8.308;2023-02-24T12:09:27;13.80;1.00
12557;DHT22;6344;49.932;8.308;2023-02-24T12:11:59;13.20;1.00
12557;DHT22;6344;49.932;8.308;2023-02-24T12:14:31;12.60;1.00
12557;DHT22;6344;49.932;8.308;2023-02-24T12:17:03;12.60;1.00
12557;DHT22;6344;49.932;8.308;2023-02-24T12:19:42;12.70;1.00
12557;DHT22;6344;49.932;8.308;2023-02-24T12:22:14;13.00;1.00
12557;DHT22;6344;49.932;8.308;2023-02-24T12:24:44;13.40;1.00
12557;DHT22;6344;49.932;8.308;2023-02-24T12:27:17;13.00;99.90
12557;DHT22;6344;49.932;8.308;2023-02-24T12:29:53;13.10;1.00
12557;DHT22;6344;49.932;8.308;2023-02-24T12:32:52;12.90;99.90
12557;DHT22;6344;49.932;8.308;2023-02-24T12:35:31;12.40;99.90
12557;DHT22;6344;49.932;8.308;2023-02-24T12:38:06;12.20;99.90
12557;DHT22;6344;49.932;8.308;2023-02-24T12:40:40;12.00;99.90
12557;DHT22;6344;49.932;8.308;2023-02-24T12:43:21;11.90;99.90
12557;DHT22;6344;49.932;8.308;2023-02-24T12:45:54;12.20;99.90
12557;DHT22;6344;49.932;8.308;2023-02-24T12:48:44;12.20;99.90
12557;DHT22;6344;49.932;8.308;2023-02-24T12:51:20;12.40;99.90
12557;DHT22;6344;49.932;8.308;2023-02-24T12:53:58;12.30;99.90
12557;DHT22;6344;49.932;8.308;2023-02-24T12:56:33;12.40;99.90
12557;DHT22;6344;49.932;8.308;2023-02-24T12:59:05;12.20;99.90
12557;DHT22;6344;49.932;8.308;2023-02-24T13:01:38;12.00;99.90
12557;DHT22;6344;49.932;8.308;2023-02-24T13:04:14;11.90;99.90
12557;DHT22;6344;49.932;8.308;2023-02-24T13:06:55;11.90;99.90
12557;DHT22;6344;49.932;8.308;2023-02-24T13:09:33;11.80;99.90
12557;DHT22;6344;49.932;8.308;2023-02-24T13:12:10;11.60;99.90
12557;DHT22;6344;49.932;8.308;2023-02-24T13:14:41;11.90;99.90
12557;DHT22;6344;49.932;8.308;2023-02-24T13:17:18;11.80;99.90
12557;DHT22;6344;49.932;8.308;2023-02-24T13:19:46;11.70;99.90
12557;DHT22;6344;49.932;8.308;2023-02-24T13:22:24;11.60;99.90
12557;DHT22;6344;49.932;8.308;2023-02-24T13:25:02;11.50;99.90
12557;DHT22;6344;49.932;8.308;2023-02-24T13:27:36;11.40;99.90
12557;DHT22;6344;49.932;8.308;2023-02-24T13:30:06;11.50;99.90
12557;DHT22;6344;49.932;8.308;2023-02-24T13:32:46;11.50;99.90
12557;DHT22;6344;49.932;8.308;2023-02-24T13:35:30;11.50;99.90
12557;DHT22;6344;49.932;8.308;2023-02-24T13:38:07;11.40;99.90
12557;DHT22;6344;49.932;8.308;2023-02-24T13:40:35;11.60;99.90
12557;DHT22;6344;49.932;8.308;2023-02-24T13:43:02;11.80;99.90
12557;DHT22;6344;49.932;8.308;2023-02-24T13:45:31;11.80;99.90
12557;DHT22;6344;49.932;8.308;2023-02-24T13:48:19;11.70;99.90
12557;DHT22;6344;49.932;8.308;2023-02-24T13:51:08;11.60;99.90
12557;DHT22;6344;49.932;8.308;2023-02-24T13:53:50;11.50;99.90
12557;DHT22;6344;49.932;8.308;2023-02-24T13:56:32;11.60;99.90
12557;DHT22;6344;49.932;8.308;2023-02-24T13:59:10;11.50;99.90
12557;DHT22;6344;49.932;8.308;2023-02-24T14:01:48;11.60;99.90
12557;DHT22;6344;49.932;8.308;2023-02-24T14:04:17;11.70;99.90
12557;DHT22;6344;49.932;8.308;2023-02-24T14:06:48;11.70;99.90
12557;DHT22;6344;49.932;8.308;2023-02-24T14:09:17;11.60;99.90
12557;DHT22;6344;49.932;8.308;2023-02-24T14:11:52;11.50;99.90
12557;DHT22;6344;49.932;8.308;2023-02-24T14:14:20;11.30;99.90
12557;DHT22;6344;49.932;8.308;2023-02-24T14:16:48;11.20;99.90
12557;DHT22;6344;49.932;8.308;2023-02-24T14:19:16;11.10;99.90
12557;DHT22;6344;49.932;8.308;2023-02-24T14:21:48;10.90;99.90
12557;DHT22;6344;49.932;8.308;2023-02-24T14:24:16;10.90;99.90
12557;DHT22;6344;49.932;8.308;2023-02-24T14:26:45;10.70;99.90
12557;DHT22;6344;49.932;8.308;2023-02-24T14:29:16;10.80;99.90
12557;DHT22;6344;49.932;8.308;2023-02-24T14:31:46;10.60;99.90
12557;DHT22;6344;49.932;8.308;2023-02-24T14:34:17;10.60;99.90
12557;DHT22;6344;49.932;8.308;2023-02-24T14:36:45;10.50;99.90
12557;DHT22;6344;49.932;8.308;2023-02-24T14:39:15;10.50;99.90
12557;DHT22;6344;49.932;8.308;2023-02-24T14:41:43;10.40;99.90
12557;DHT22;6344;49.932;8.308;2023-02-24T14:44:18;10.60;99.90
12557;DHT22;6344;49.932;8.308;2023-02-24T14:46:47;10.60;99.90
12557;DHT22;6344;49.932;8.308;2023-02-24T14:49:18;10.60;99.90
12557;DHT22;6344;49.932;8.308;2023-02-24T14:51:46;10.70;99.90
12557;DHT22;6344;49.932;8.308;2023-02-24T14:54:19;10.70;99.90
12557;DHT22;6344;49.932;8.308;2023-02-24T14:56:46;10.50;99.90
12557;DHT22;6344;49.932;8.308;2023-02-24T14:59:19;10.40;99.90
12557;DHT22;6344;49.932;8.308;2023-02-24T15:01:48;10.30;99.90
12557;DHT22;6344;49.932;8.308;2023-02-24T15:04:24;10.40;99.90
12557;DHT22;6344;49.932;8.308;2023-02-24T15:06:55;10.50;99.90
12557;DHT22;6344;49.932;8.308;2023-02-24T15:09:24;10.50;99.90
12557;DHT22;6344;49.932;8.308;2023-02-24T15:11:52;10.60;99.90
12557;DHT22;6344;49.932;8.308;2023-02-24T15:14:23;10.70;99.90
12557;DHT22;6344;49.932;8.308;2023-02-24T15:16:54;10.60;99.90
12557;DHT22;6344;49.932;8.308;2023-02-24T15:19:25;10.50;99.90
12557;DHT22;6344;49.932;8.308;2023-02-24T15:21:52;10.60;99.90
12557;DHT22;6344;49.932;8.308;2023-02-24T15:24:24;10.70;99.90
12557;DHT22;6344;49.932;8.308;2023-02-24T15:26:52;10.80;99.90
12557;DHT22;6344;49.932;8.308;2023-02-24T15:29:23;10.80;99.90
12557;DHT22;6344;49.932;8.308;2023-02-24T15:31:52;10.60;99.90
12557;DHT22;6344;49.932;8.308;2023-02-24T15:34:21;10.40;99.90
12557;DHT22;6344;49.932;8.308;2023-02-24T15:36:49;10.40;99.90
12557;DHT22;6344;49.932;8.308;2023-02-24T15:39:20;10.20;99.90
12557;DHT22;6344;49.932;8.308;2023-02-24T15:41:50;10.10;99.90
12557;DHT22;6344;49.932;8.308;2023-02-24T15:44:26;9.90;99.90
12557;DHT22;6344;49.932;8.308;2023-02-24T15:46:53;9.80;99.90
12557;DHT22;6344;49.932;8.308;2023-02-24T15:49:20;9.90;99.90
12557;DHT22;6344;49.932;8.308;2023-02-24T15:51:48;9.80;99.90
12557;DHT22;6344;49.932;8.308;2023-02-24T15:54:18;9.70;99.90
12557;DHT22;6344;49.932;8.308;2023-02-24T15:56:45;9.70;99.90
12557;DHT22;6344;49.932;8.308;2023-02-24T15:59:13;9.60;99.90
12557;DHT22;6344;49.932;8.308;2023-02-24T16:01:42;9.50;99.90
12557;DHT22;6344;49.932;8.308;2023-02-24T16:04:08;9.50;99.90
12557;DHT22;6344;49.932;8.308;2023-02-24T16:06:35;9.50;99.90
12557;DHT22;6344;49.932;8.308;2023-02-24T16:09:06;9.40;99.90
12557;DHT22;6344;49.932;8.308;2023-02-24T16:11:36;9.40;99.90
12557;DHT22;6344;49.932;8.308;2023-02-24T16:14:04;9.30;99.90
12557;DHT22;6344;49.932;8.308;2023-02-24T16:16:30;9.30;99.90
12557;DHT22;6344;49.932;8.308;2023-02-24T16:18:59;9.20;99.90
12557;DHT22;6344;49.932;8.308;2023-02-24T16:21:26;9.20;99.90
12557;DHT22;6344;49.932;8.308;2023-02-24T16:23:52;9.20;99.90
12557;DHT22;6344;49.932;8.308;2023-02-24T16:26:20;9.00;99.90
12557;DHT22;6344;49.932;8.308;2023-02-24T16:28:51;9.00;99.90
12557;DHT22;6344;49.932;8.308;2023-02-24T16:31:18;8.90;99.90